sensor_id;sensor_type;location;lat;lon;timestamp;pressure;altitude;pressure_sealevel;temperature;humidity
14594;BME280;7383;52.354;9.756;2023-04-30T00:00:47;-12660.53;;;11.79;100.00
14594;BME280;7383;52.354;9.756;2023-04-30T00:03:13;-12659.56;;;11.74;100.00
14594;BME280;7383;52.354;9.756;2023-04-30T00:05:41;-12659.22;;;11.72;100.00
14594;BME280;7383;52.354;9.756;2023-04-30T00:08:07;-12659.22;;;11.72;100.00
14594;BME280;7383;52.354;9.756;2023-04-30T00:10:34;-12658.69;;;11.69;100.00
14594;BME280;7383;52.354;9.756;2023-04-30T00:13:00;-12658.69;;;11.69;100.00
14594;BME280;7383;52.354;9.756;2023-04-30T00:15:27;-12658.19;;;11.66;100.00
14594;BME280;7383;52.354;9.756;2023-04-30T00:17:53;-12658.28;;;11.66;100.00
14594;BME280;7383;52.354;9.756;2023-04-30T00:20:20;-12657.91;;;11.64;100.00
14594;BME280;7383;52.354;9.756;2023-04-30T00:22:48;-12657.31;;;11.61;100.00
14594;BME280;7383;52.354;9.756;2023-04-30T00:25:16;-12656.53;;;11.56;100.00
14594;BME280;7383;52.354;9.756;2023-04-30T00:27:45;-12656.00;;;11.53;100.00
14594;BME280;7383;52.354;9.756;2023-04-30T00:30:11;-12656.44;;;11.56;100.00
14594;BME280;7383;52.354;9.756;2023-04-30T00:32:38;-12655.56;;;11.51;100.00
14594;BME280;7383;52.354;9.756;2023-04-30T00:35:05;-12655.66;;;11.51;100.00
14594;BME280;7383;52.354;9.756;2023-04-30T00:37:32;-12654.59;;;11.45;100.00
14594;BME280;7383;52.354;9.756;2023-04-30T00:39:59;-12654.16;;;11.43;100.00
14594;BME280;7383;52.354;9.756;2023-04-30T00:42:26;-12653.13;;;11.36;100.00
14594;BME280;7383;52.354;9.756;2023-04-30T00:44:52;-12652.50;;;11.33;100.00
14594;BME280;7383;52.354;9.756;2023-04-30T00:47:19;-12652.94;;;11.35;100.00
14594;BME280;7383;52.354;9.756;2023-04-30T00:49:46;-12652.59;;;11.33;100.00
14594;BME280;7383;52.354;9.756;2023-04-30T00:52:13;-12652.50;;;11.33;100.00
14594;BME280;7383;52.354;9.756;2023-04-30T00:54:39;-12652.88;;;11.35;100.00
14594;BME280;7383;52.354;9.756;2023-04-30T00:57:08;-12652.41;;;11.32;100.00
14594;BME280;7383;52.354;9.756;2023-04-30T00:59:37;-12652.16;;;11.31;100.00
14594;BME280;7383;52.354;9.756;2023-04-30T01:02:04;-12652.00;;;11.30;100.00
14594;BME280;7383;52.354;9.756;2023-04-30T01:04:31;-12651.72;;;11.28;100.00
14594;BME280;7383;52.354;9.756;2023-04-30T01:06:58;-12650.16;;;11.19;100.00
14594;BME280;7383;52.354;9.756;2023-04-30T01:09:25;-12650.16;;;11.19;100.00
14594;BME280;7383;52.354;9.756;2023-04-30T01:11:59;-12649.53;;;11.16;100.00
14594;BME280;7383;52.354;9.756;2023-04-30T01:14:31;-12648.94;;;11.12;100.00
14594;BME280;7383;52.354;9.756;2023-04-30T01:17:04;-12648.75;;;11.11;100.00
14594;BME280;7383;52.354;9.756;2023-04-30T01:19:38;-12648.75;;;11.11;100.00
14594;BME280;7383;52.354;9.756;2023-04-30T01:22:09;-12648.94;;;11.12;100.00
14594;BME280;7383;52.354;9.756;2023-04-30T01:24:48;-12648.59;;;11.10;100.00
14594;BME280;7383;52.354;9.756;2023-04-30T01:27:29;-12648.31;;;11.09;100.00
14594;BME280;7383;52.354;9.756;2023-04-30T01:30:00;-12648.41;;;11.09;100.00
14594;BME280;7383;52.354;9.756;2023-04-30T01:32:28;-12647.44;;;11.04;100.00
14594;BME280;7383;52.354;9.756;2023-04-30T01:34:55;-12648.31;;;11.09;100.00
14594;BME280;7383;52.354;9.756;2023-04-30T01:37:26;-12648.31;;;11.09;100.00
14594;BME280;7383;52.354;9.756;2023-04-30T01:40:04;-12647.53;;;11.04;100.00
14594;BME280;7383;52.354;9.756;2023-04-30T01:42:40;-12647.53;;;11.04;100.00
14594;BME280;7383;52.354;9.756;2023-04-30T01:45:31;-12647.28;;;11.03;100.00
14594;BME280;7383;52.354;9.756;2023-04-30T01:48:07;-12646.94;;;11.01;100.00
14594;BME280;7383;52.354;9.756;2023-04-30T01:50:43;-12646.41;;;10.98;100.00
14594;BME280;7383;52.354;9.756;2023-04-30T01:53:17;-12646.31;;;10.97;100.00
14594;BME280;7383;52.354;9.756;2023-04-30T01:55:49;-12646.06;;;10.96;100.00
14594;BME280;7383;52.354;9.756;2023-04-30T01:58:19;-12645.00;;;10.90;100.00
14594;BME280;7383;52.354;9.756;2023-04-30T02:00:49;-12645.09;;;10.90;100.00
14594;BME280;7383;52.354;9.756;2023-04-30T02:03:16;-12644.84;;;10.89;100.00
14594;BME280;7383;52.354;9.756;2023-04-30T02:05:42;-12644.66;;;10.88;100.00
14594;BME280;7383;52.354;9.756;2023-04-30T02:08:09;-12644.66;;;10.88;100.00
14594;BME280;7383;52.354;9.756;2023-04-30T02:10:35;-12644.03;;;10.84;100.00
14594;BME280;7383;52.354;9.756;2023-04-30T02:13:02;-12643.34;;;10.80;100.00
14594;BME280;7383;52.354;9.756;2023-04-30T02:15:29;-12642.31;;;10.74;100.00
14594;BME280;7383;52.354;9.756;2023-04-30T02:17:57;-12641.94;;;10.72;100.00
14594;BME280;7383;52.354;9.756;2023-04-30T02:20:23;-12642.31;;;10.74;100.00
14594;BME280;7383;52.354;9.756;2023-04-30T02:22:50;-12641.25;;;10.68;100.00
14594;BME280;7383;52.354;9.756;2023-04-30T02:25:16;-12639.69;;;10.59;100.00
14594;BME280;7383;52.354;9.756;2023-04-30T02:27:42;-12638.97;;;10.55;100.00
14594;BME280;7383;52.354;9.756;2023-04-30T02:30:09;-12638.28;;;10.51;100.00
14594;BME280;7383;52.354;9.756;2023-04-30T02:32:36;-12637.22;;;10.45;100.00
14594;BME280;7383;52.354;9.756;2023-04-30T02:35:04;-12637.16;;;10.44;100.00
14594;BME280;7383;52.354;9.756;2023-04-30T02:37:31;-12637.22;;;10.45;100.00
14594;BME280;7383;52.354;9.756;2023-04-30T02:39:57;-12637.16;;;10.44;100.00
14594;BME280;7383;52.354;9.756;2023-04-30T02:42:24;-12636.78;;;10.42;100.00
14594;BME280;7383;52.354;9.756;2023-04-30T02:44:50;-12636.53;;;10.41;100.00
14594;BME280;7383;52.354;9.756;2023-04-30T02:47:16;-12637.22;;;10.45;100.00
14594;BME280;7383;52.354;9.756;2023-04-30T02:49:43;-12636.44;;;10.40;100.00
14594;BME280;7383;52.354;9.756;2023-04-30T02:52:10;-12635.41;;;10.34;100.00
14594;BME280;7383;52.354;9.756;2023-04-30T02:54:37;-12635.94;;;10.37;100.00
14594;BME280;7383;52.354;9.756;2023-04-30T02:57:03;-12635.31;;;10.33;100.00
14594;BME280;7383;52.354;9.756;2023-04-30T02:59:31;-12635.41;;;10.34;100.00
14594;BME280;7383;52.354;9.756;2023-04-30T03:01:57;-12635.06;;;10.32;100.00
14594;BME280;7383;52.354;9.756;2023-04-30T03:04:24;-12633.91;;;10.25;100.00
14594;BME280;7383;52.354;9.756;2023-04-30T03:06:51;-12633.22;;;10.21;100.00
14594;BME280;7383;52.354;9.756;2023-04-30T03:09:19;-12632.69;;;10.18;100.00
14594;BME280;7383;52.354;9.756;2023-04-30T03:11:46;-12632.44;;;10.17;100.00
14594;BME280;7383;52.354;9.756;2023-04-30T03:14:12;-12631.47;;;10.11;100.00
14594;BME280;7383;52.354;9.756;2023-04-30T03:16:39;-12632.44;;;10.17;100.00
14594;BME280;7383;52.354;9.756;2023-04-30T03:19:06;-12630.84;;;10.08;100.00
14594;BME280;7383;52.354;9.756;2023-04-30T03:21:32;-12631.19;;;10.10;100.00
14594;BME280;7383;52.354;9.756;2023-04-30T03:23:58;-12631.03;;;10.09;100.00
14594;BME280;7383;52.354;9.756;2023-04-30T03:26:26;-12630.25;;;10.04;100.00
14594;BME280;7383;52.354;9.756;2023-04-30T03:28:53;-12630.50;;;10.06;100.00
14594;BME280;7383;52.354;9.756;2023-04-30T03:31:20;-12630.16;;;10.04;100.00
14594;BME280;7383;52.354;9.756;2023-04-30T03:33:46;-12629.00;;;9.97;100.00
14594;BME280;7383;52.354;9.756;2023-04-30T03:36:13;-12628.94;;;9.97;100.00
14594;BME280;7383;52.354;9.756;2023-04-30T03:38:39;-12628.41;;;9.94;100.00
14594;BME280;7383;52.354;9.756;2023-04-30T03:41:06;-12627.97;;;9.91;100.00
14594;BME280;7383;52.354;9.756;2023-04-30T03:43:34;-12628.31;;;9.93;100.00
14594;BME280;7383;52.354;9.756;2023-04-30T03:46:00;65156.72;;;-143.30;100.00
14594;BME280;7383;52.354;9.756;2023-04-30T03:48:27;65156.72;;;-143.30;100.00
14594;BME280;7383;52.354;9.756;2023-04-30T03:50:53;65156.72;;;-143.30;100.00
14594;BME280;7383;52.354;9.756;2023-04-30T03:53:20;65156.72;;;-143.30;100.00
14594;BME280;7383;52.354;9.756;2023-04-30T03:55:48;65156.72;;;-143.30;100.00
14594;BME280;7383;52.354;9.756;2023-04-30T03:58:15;65156.72;;;-143.30;100.00
14594;BME280;7383;52.354;9.756;2023-04-30T04:00:43;65156.72;;;-143.30;100.00
14594;BME280;7383;52.354;9.756;2023-04-30T04:03:11;65156.72;;;-143.30;100.00
14594;BME280;7383;52.354;9.756;2023-04-30T04:05:38;65156.72;;;-143.30;100.00
14594;BME280;7383;52.354;9.756;2023-04-30T04:08:05;65156.72;;;-143.30;100.00
14594;BME280;7383;52.354;9.756;2023-04-30T04:10:32;65156.72;;;-143.30;100.00
14594;BME280;7383;52.354;9.756;2023-04-30T04:12:59;65156.72;;;-143.30;100.00
14594;BME280;7383;52.354;9.756;2023-04-30T04:15:25;65156.72;;;-143.30;100.00
14594;BME280;7383;52.354;9.756;2023-04-30T04:17:53;65156.72;;;-143.30;100.00
14594;BME280;7383;52.354;9.756;2023-04-30T04:20:20;65156.72;;;-143.30;100.00
14594;BME280;7383;52.354;9.756;2023-04-30T04:22:46;65156.72;;;-143.30;100.00
14594;BME280;7383;52.354;9.756;2023-04-30T04:25:14;65156.72;;;-143.30;100.00
14594;BME280;7383;52.354;9.756;2023-04-30T04:27:42;65156.72;;;-143.30;100.00
14594;BME280;7383;52.354;9.756;2023-04-30T04:30:10;65156.72;;;-143.30;100.00
14594;BME280;7383;52.354;9.756;2023-04-30T04:32:36;65156.72;;;-143.30;100.00
14594;BME280;7383;52.354;9.756;2023-04-30T04:35:12;65156.72;;;-143.30;100.00
14594;BME280;7383;52.354;9.756;2023-04-30T04:37:39;65156.72;;;-143.30;100.00
14594;BME280;7383;52.354;9.756;2023-04-30T04:40:07;65156.72;;;-143.30;100.00
14594;BME280;7383;52.354;9.756;2023-04-30T04:42:34;65156.72;;;-143.30;100.00
14594;BME280;7383;52.354;9.756;2023-04-30T04:45:03;65156.72;;;-143.30;100.00
14594;BME280;7383;52.354;9.756;2023-04-30T04:47:30;65156.72;;;-143.30;100.00
14594;BME280;7383;52.354;9.756;2023-04-30T04:49:56;65156.72;;;-143.30;100.00
14594;BME280;7383;52.354;9.756;2023-04-30T04:52:24;65156.72;;;-143.30;100.00
14594;BME280;7383;52.354;9.756;2023-04-30T04:54:51;65156.72;;;-143.30;100.00
14594;BME280;7383;52.354;9.756;2023-04-30T04:57:17;65156.72;;;-143.30;100.00
14594;BME280;7383;52.354;9.756;2023-04-30T04:59:43;65156.72;;;-143.30;100.00
14594;BME280;7383;52.354;9.756;2023-04-30T05:02:10;65156.72;;;-143.30;100.00
14594;BME280;7383;52.354;9.756;2023-04-30T05:04:36;65156.72;;;-143.30;100.00
14594;BME280;7383;52.354;9.756;2023-04-30T05:07:03;65156.72;;;-143.30;100.00
14594;BME280;7383;52.354;9.756;2023-04-30T05:09:31;65156.72;;;-143.30;100.00
14594;BME280;7383;52.354;9.756;2023-04-30T05:11:57;65156.72;;;-143.30;100.00
14594;BME280;7383;52.354;9.756;2023-04-30T05:14:24;-12628.31;;;9.93;100.00
14594;BME280;7383;52.354;9.756;2023-04-30T05:16:50;65156.72;;;-143.30;100.00
14594;BME280;7383;52.354;9.756;2023-04-30T05:19:17;65156.72;;;-143.30;100.00
14594;BME280;7383;52.354;9.756;2023-04-30T05:21:43;65156.72;;;-143.30;100.00
14594;BME280;7383;52.354;9.756;2023-04-30T05:24:11;65156.72;;;-143.30;100.00
14594;BME280;7383;52.354;9.756;2023-04-30T05:26:38;65156.72;;;-143.30;100.00
14594;BME280;7383;52.354;9.756;2023-04-30T05:29:05;65156.72;;;-143.30;100.00
14594;BME280;7383;52.354;9.756;2023-04-30T05:31:31;-12633.31;;;10.22;100.00
14594;BME280;7383;52.354;9.756;2023-04-30T05:33:58;-12634.00;;;10.26;100.00
14594;BME280;7383;52.354;9.756;2023-04-30T05:36:24;-12634.97;;;10.31;100.00
14594;BME280;7383;52.354;9.756;2023-04-30T05:38:51;-12635.75;;;10.36;100.00
14594;BME280;7383;52.354;9.756;2023-04-30T05:41:17;-12636.28;;;10.39;100.00
14594;BME280;7383;52.354;9.756;2023-04-30T05:43:45;-12636.63;;;10.41;100.00
14594;BME280;7383;52.354;9.756;2023-04-30T05:46:12;-12637.31;;;10.45;100.00
14594;BME280;7383;52.354;9.756;2023-04-30T05:48:38;-12637.06;;;10.44;100.00
14594;BME280;7383;52.354;9.756;2023-04-30T05:51:05;-12638.63;;;10.53;100.00
14594;BME280;7383;52.354;9.756;2023-04-30T05:53:31;-12638.38;;;10.51;100.00
14594;BME280;7383;52.354;9.756;2023-04-30T05:55:58;-12639.50;;;10.58;100.00
14594;BME280;7383;52.354;9.756;2023-04-30T05:58:25;-12639.06;;;10.55;100.00
14594;BME280;7383;52.354;9.756;2023-04-30T06:00:53;-12639.59;;;10.58;100.00
14594;BME280;7383;52.354;9.756;2023-04-30T06:03:20;-12638.91;;;10.54;100.00
14594;BME280;7383;52.354;9.756;2023-04-30T06:05:47;65156.72;;;-143.30;100.00
14594;BME280;7383;52.354;9.756;2023-04-30T06:08:14;65156.72;;;-143.30;100.00
14594;BME280;7383;52.354;9.756;2023-04-30T06:10:40;65156.72;;;-143.30;100.00
14594;BME280;7383;52.354;9.756;2023-04-30T06:13:07;65156.72;;;-143.30;100.00
14594;BME280;7383;52.354;9.756;2023-04-30T06:15:33;65156.72;;;-143.30;100.00
14594;BME280;7383;52.354;9.756;2023-04-30T06:18:02;65156.72;;;-143.30;100.00
14594;BME280;7383;52.354;9.756;2023-04-30T06:20:28;65156.72;;;-143.30;100.00
14594;BME280;7383;52.354;9.756;2023-04-30T07:27:35;65156.72;;;-143.30;100.00
14594;BME280;7383;52.354;9.756;2023-04-30T07:30:03;65156.72;;;-143.30;100.00
14594;BME280;7383;52.354;9.756;2023-04-30T07:32:29;65156.72;;;-143.30;100.00
14594;BME280;7383;52.354;9.756;2023-04-30T07:34:56;65156.72;;;-143.30;100.00
14594;BME280;7383;52.354;9.756;2023-04-30T07:37:22;65156.72;;;-143.30;100.00
14594;BME280;7383;52.354;9.756;2023-04-30T07:39:49;65156.72;;;-143.30;100.00
14594;BME280;7383;52.354;9.756;2023-04-30T07:42:15;65156.72;;;-143.30;100.00
14594;BME280;7383;52.354;9.756;2023-04-30T07:44:43;65156.72;;;-143.30;100.00
14594;BME280;7383;52.354;9.756;2023-04-30T07:47:10;65156.72;;;-143.30;100.00
14594;BME280;7383;52.354;9.756;2023-04-30T07:49:36;65156.72;;;-143.30;100.00
14594;BME280;7383;52.354;9.756;2023-04-30T07:52:03;65156.72;;;-143.30;100.00
14594;BME280;7383;52.354;9.756;2023-04-30T07:54:30;65156.72;;;-143.30;100.00
14594;BME280;7383;52.354;9.756;2023-04-30T07:57:00;65156.72;;;-143.30;100.00
14594;BME280;7383;52.354;9.756;2023-04-30T07:59:27;65156.72;;;-143.30;100.00
14594;BME280;7383;52.354;9.756;2023-04-30T08:01:55;65156.72;;;-143.30;100.00
14594;BME280;7383;52.354;9.756;2023-04-30T08:04:22;65156.72;;;-143.30;100.00
14594;BME280;7383;52.354;9.756;2023-04-30T08:06:48;65156.72;;;-143.30;100.00
14594;BME280;7383;52.354;9.756;2023-04-30T08:09:14;65156.72;;;-143.30;100.00
14594;BME280;7383;52.354;9.756;2023-04-30T08:11:41;65156.72;;;-143.30;100.00
14594;BME280;7383;52.354;9.756;2023-04-30T08:14:07;65156.72;;;-143.30;100.00
14594;BME280;7383;52.354;9.756;2023-04-30T08:16:34;65156.72;;;-143.30;100.00
14594;BME280;7383;52.354;9.756;2023-04-30T08:19:02;65156.72;;;-143.30;100.00
14594;BME280;7383;52.354;9.756;2023-04-30T08:21:29;65156.72;;;-143.30;100.00
14594;BME280;7383;52.354;9.756;2023-04-30T08:23:55;65156.72;;;-143.30;100.00
14594;BME280;7383;52.354;9.756;2023-04-30T08:26:24;65156.72;;;-143.30;100.00
14594;BME280;7383;52.354;9.756;2023-04-30T08:28:51;65156.72;;;-143.30;100.00
14594;BME280;7383;52.354;9.756;2023-04-30T08:31:17;65156.72;;;-143.30;100.00
14594;BME280;7383;52.354;9.756;2023-04-30T08:33:49;65156.72;;;-143.30;100.00
14594;BME280;7383;52.354;9.756;2023-04-30T08:45:48;65156.72;;;-143.30;100.00
14594;BME280;7383;52.354;9.756;2023-04-30T08:55:59;65156.72;;;-143.30;100.00
14594;BME280;7383;52.354;9.756;2023-04-30T08:58:34;65156.72;;;-143.30;100.00
14594;BME280;7383;52.354;9.756;2023-04-30T09:01:06;65156.72;;;-143.30;100.00
14594;BME280;7383;52.354;9.756;2023-04-30T09:03:44;65156.72;;;-143.30;100.00
14594;BME280;7383;52.354;9.756;2023-04-30T09:25:40;65156.72;;;-143.30;100.00
14594;BME280;7383;52.354;9.756;2023-04-30T09:28:14;65156.72;;;-143.30;100.00
14594;BME280;7383;52.354;9.756;2023-04-30T09:30:56;65156.72;;;-143.30;100.00
14594;BME280;7383;52.354;9.756;2023-04-30T09:33:46;65156.72;;;-143.30;100.00
14594;BME280;7383;52.354;9.756;2023-04-30T09:42:09;65156.72;;;-143.30;100.00
14594;BME280;7383;52.354;9.756;2023-04-30T09:44:37;65156.72;;;-143.30;100.00
14594;BME280;7383;52.354;9.756;2023-04-30T09:47:10;65156.72;;;-143.30;100.00
14594;BME280;7383;52.354;9.756;2023-04-30T09:49:40;65156.72;;;-143.30;100.00
14594;BME280;7383;52.354;9.756;2023-04-30T09:52:07;65156.72;;;-143.30;100.00
14594;BME280;7383;52.354;9.756;2023-04-30T09:54:34;65156.72;;;-143.30;100.00
14594;BME280;7383;52.354;9.756;2023-04-30T09:57:01;65156.72;;;-143.30;100.00
14594;BME280;7383;52.354;9.756;2023-04-30T09:59:32;65156.72;;;-143.30;100.00
14594;BME280;7383;52.354;9.756;2023-04-30T10:02:02;65156.72;;;-143.30;100.00
14594;BME280;7383;52.354;9.756;2023-04-30T10:04:33;65156.72;;;-143.30;100.00
14594;BME280;7383;52.354;9.756;2023-04-30T10:07:02;65156.72;;;-143.30;100.00
14594;BME280;7383;52.354;9.756;2023-04-30T10:09:35;65156.72;;;-143.30;100.00
14594;BME280;7383;52.354;9.756;2023-04-30T10:12:07;65156.72;;;-143.30;100.00
14594;BME280;7383;52.354;9.756;2023-04-30T10:14:44;65156.72;;;-143.30;100.00
14594;BME280;7383;52.354;9.756;2023-04-30T10:17:15;65156.72;;;-143.30;100.00
14594;BME280;7383;52.354;9.756;2023-04-30T10:19:47;65156.72;;;-143.30;100.00
14594;BME280;7383;52.354;9.756;2023-04-30T10:22:15;65156.72;;;-143.30;100.00
14594;BME280;7383;52.354;9.756;2023-04-30T10:24:42;65156.72;;;-143.30;100.00
14594;BME280;7383;52.354;9.756;2023-04-30T10:27:11;65156.72;;;-143.30;100.00
14594;BME280;7383;52.354;9.756;2023-04-30T10:29:40;65156.72;;;-143.30;100.00
14594;BME280;7383;52.354;9.756;2023-04-30T10:32:10;65156.72;;;-143.30;100.00
14594;BME280;7383;52.354;9.756;2023-04-30T10:34:44;65156.72;;;-143.30;100.00
14594;BME280;7383;52.354;9.756;2023-04-30T10:37:19;65156.72;;;-143.30;100.00
14594;BME280;7383;52.354;9.756;2023-04-30T10:39:48;65156.72;;;-143.30;100.00
14594;BME280;7383;52.354;9.756;2023-04-30T10:42:16;65156.72;;;-143.30;100.00
14594;BME280;7383;52.354;9.756;2023-04-30T10:44:44;65156.72;;;-143.30;100.00
14594;BME280;7383;52.354;9.756;2023-04-30T10:47:11;65156.72;;;-143.30;100.00
14594;BME280;7383;52.354;9.756;2023-04-30T10:49:37;65156.72;;;-143.30;100.00
14594;BME280;7383;52.354;9.756;2023-04-30T10:52:09;65156.72;;;-143.30;100.00
14594;BME280;7383;52.354;9.756;2023-04-30T10:54:37;65156.72;;;-143.30;100.00
14594;BME280;7383;52.354;9.756;2023-04-30T10:57:10;65156.72;;;-143.30;100.00
14594;BME280;7383;52.354;9.756;2023-04-30T10:59:41;65156.72;;;-143.30;100.00
14594;BME280;7383;52.354;9.756;2023-04-30T11:02:13;65156.72;;;-143.30;100.00
14594;BME280;7383;52.354;9.756;2023-04-30T11:05:09;65156.72;;;-143.30;100.00
14594;BME280;7383;52.354;9.756;2023-04-30T11:07:36;65156.72;;;-143.30;100.00
14594;BME280;7383;52.354;9.756;2023-04-30T11:10:06;65156.72;;;-143.30;100.00
14594;BME280;7383;52.354;9.756;2023-04-30T11:12:33;65156.72;;;-143.30;100.00
14594;BME280;7383;52.354;9.756;2023-04-30T11:15:06;65156.72;;;-143.30;100.00
14594;BME280;7383;52.354;9.756;2023-04-30T11:17:39;65156.72;;;-143.30;100.00
14594;BME280;7383;52.354;9.756;2023-04-30T11:20:19;65156.72;;;-143.30;100.00
14594;BME280;7383;52.354;9.756;2023-04-30T11:23:07;65156.72;;;-143.30;100.00
14594;BME280;7383;52.354;9.756;2023-04-30T11:25:39;65156.72;;;-143.30;100.00
14594;BME280;7383;52.354;9.756;2023-04-30T11:28:16;65156.72;;;-143.30;100.00
14594;BME280;7383;52.354;9.756;2023-04-30T11:30:53;65156.72;;;-143.30;100.00
14594;BME280;7383;52.354;9.756;2023-04-30T11:33:24;65156.72;;;-143.30;100.00
14594;BME280;7383;52.354;9.756;2023-04-30T11:35:51;65156.72;;;-143.30;100.00
14594;BME280;7383;52.354;9.756;2023-04-30T11:38:19;65156.72;;;-143.30;100.00
14594;BME280;7383;52.354;9.756;2023-04-30T11:40:47;65156.72;;;-143.30;100.00
14594;BME280;7383;52.354;9.756;2023-04-30T11:43:21;65156.72;;;-143.30;100.00
14594;BME280;7383;52.354;9.756;2023-04-30T11:45:58;65156.72;;;-143.30;100.00
14594;BME280;7383;52.354;9.756;2023-04-30T11:48:31;65156.72;;;-143.30;100.00
14594;BME280;7383;52.354;9.756;2023-04-30T11:51:10;65156.72;;;-143.30;100.00
14594;BME280;7383;52.354;9.756;2023-04-30T11:53:42;65156.72;;;-143.30;100.00
14594;BME280;7383;52.354;9.756;2023-04-30T11:56:09;65156.72;;;-143.30;100.00
14594;BME280;7383;52.354;9.756;2023-04-30T11:58:36;65156.72;;;-143.30;100.00
14594;BME280;7383;52.354;9.756;2023-04-30T12:01:04;65156.72;;;-143.30;100.00
14594;BME280;7383;52.354;9.756;2023-04-30T12:03:48;65156.72;;;-143.30;100.00
14594;BME280;7383;52.354;9.756;2023-04-30T12:06:21;65156.72;;;-143.30;100.00
14594;BME280;7383;52.354;9.756;2023-04-30T12:08:47;65156.72;;;-143.30;100.00
14594;BME280;7383;52.354;9.756;2023-04-30T12:11:20;65156.72;;;-143.30;100.00
14594;BME280;7383;52.354;9.756;2023-04-30T12:13:51;65156.72;;;-143.30;100.00
14594;BME280;7383;52.354;9.756;2023-04-30T12:16:17;65156.72;;;-143.30;100.00
14594;BME280;7383;52.354;9.756;2023-04-30T12:18:44;65156.72;;;-143.30;100.00
14594;BME280;7383;52.354;9.756;2023-04-30T12:21:13;65156.72;;;-143.30;100.00
14594;BME280;7383;52.354;9.756;2023-04-30T12:23:40;65156.72;;;-143.30;100.00
14594;BME280;7383;52.354;9.756;2023-04-30T12:26:09;65156.72;;;-143.30;100.00
14594;BME280;7383;52.354;9.756;2023-04-30T12:28:36;65156.72;;;-143.30;100.00
14594;BME280;7383;52.354;9.756;2023-04-30T12:31:03;65156.72;;;-143.30;100.00
14594;BME280;7383;52.354;9.756;2023-04-30T12:33:30;65156.72;;;-143.30;100.00
14594;BME280;7383;52.354;9.756;2023-04-30T12:35:57;65156.72;;;-143.30;100.00
14594;BME280;7383;52.354;9.756;2023-04-30T12:38:25;65156.72;;;-143.30;100.00
14594;BME280;7383;52.354;9.756;2023-04-30T12:40:52;65156.72;;;-143.30;100.00
14594;BME280;7383;52.354;9.756;2023-04-30T12:43:18;65156.72;;;-143.30;100.00
14594;BME280;7383;52.354;9.756;2023-04-30T12:45:47;65156.72;;;-143.30;100.00
14594;BME280;7383;52.354;9.756;2023-04-30T12:48:15;65156.72;;;-143.30;100.00
14594;BME280;7383;52.354;9.756;2023-04-30T12:50:46;65156.72;;;-143.30;100.00
14594;BME280;7383;52.354;9.756;2023-04-30T12:53:13;65156.72;;;-143.30;100.00
14594;BME280;7383;52.354;9.756;2023-04-30T12:55:41;65156.72;;;-143.30;100.00
14594;BME280;7383;52.354;9.756;2023-04-30T12:58:08;65156.72;;;-143.30;100.00
14594;BME280;7383;52.354;9.756;2023-04-30T13:00:46;65156.72;;;-143.30;100.00
14594;BME280;7383;52.354;9.756;2023-04-30T13:03:13;65156.72;;;-143.30;100.00
14594;BME280;7383;52.354;9.756;2023-04-30T13:05:41;65156.72;;;-143.30;100.00
14594;BME280;7383;52.354;9.756;2023-04-30T13:08:08;65156.72;;;-143.30;100.00
14594;BME280;7383;52.354;9.756;2023-04-30T13:10:34;65156.72;;;-143.30;100.00
14594;BME280;7383;52.354;9.756;2023-04-30T13:13:02;65156.72;;;-143.30;100.00
14594;BME280;7383;52.354;9.756;2023-04-30T13:15:29;65156.72;;;-143.30;100.00
14594;BME280;7383;52.354;9.756;2023-04-30T13:17:55;65156.72;;;-143.30;100.00
14594;BME280;7383;52.354;9.756;2023-04-30T13:20:22;65156.72;;;-143.30;100.00
14594;BME280;7383;52.354;9.756;2023-04-30T13:22:49;65156.72;;;-143.30;100.00
14594;BME280;7383;52.354;9.756;2023-04-30T13:25:17;65156.72;;;-143.30;100.00
14594;BME280;7383;52.354;9.756;2023-04-30T13:27:44;65156.72;;;-143.30;100.00
14594;BME280;7383;52.354;9.756;2023-04-30T13:30:13;65156.72;;;-143.30;100.00
14594;BME280;7383;52.354;9.756;2023-04-30T13:32:39;65156.72;;;-143.30;100.00
14594;BME280;7383;52.354;9.756;2023-04-30T13:35:08;65156.72;;;-143.30;100.00
14594;BME280;7383;52.354;9.756;2023-04-30T13:37:34;65156.72;;;-143.30;100.00
14594;BME280;7383;52.354;9.756;2023-04-30T13:40:01;65156.72;;;-143.30;100.00
14594;BME280;7383;52.354;9.756;2023-04-30T13:42:28;65156.72;;;-143.30;100.00
14594;BME280;7383;52.354;9.756;2023-04-30T13:44:55;65156.72;;;-143.30;100.00
14594;BME280;7383;52.354;9.756;2023-04-30T13:47:25;65156.72;;;-143.30;100.00
14594;BME280;7383;52.354;9.756;2023-04-30T13:49:52;65156.72;;;-143.30;100.00
14594;BME280;7383;52.354;9.756;2023-04-30T13:52:18;65156.72;;;-143.30;100.00
14594;BME280;7383;52.354;9.756;2023-04-30T13:54:45;65156.72;;;-143.30;100.00
14594;BME280;7383;52.354;9.756;2023-04-30T13:57:11;65156.72;;;-143.30;100.00
14594;BME280;7383;52.354;9.756;2023-04-30T13:59:39;65156.72;;;-143.30;100.00
14594;BME280;7383;52.354;9.756;2023-04-30T14:02:05;65156.72;;;-143.30;100.00
14594;BME280;7383;52.354;9.756;2023-04-30T14:04:33;65156.72;;;-143.30;100.00
14594;BME280;7383;52.354;9.756;2023-04-30T14:07:00;65156.72;;;-143.30;100.00
14594;BME280;7383;52.354;9.756;2023-04-30T14:09:27;65156.72;;;-143.30;100.00
14594;BME280;7383;52.354;9.756;2023-04-30T14:11:54;65156.72;;;-143.30;100.00
14594;BME280;7383;52.354;9.756;2023-04-30T14:14:22;65156.72;;;-143.30;100.00
14594;BME280;7383;52.354;9.756;2023-04-30T14:16:48;65156.72;;;-143.30;100.00
14594;BME280;7383;52.354;9.756;2023-04-30T14:19:15;65156.72;;;-143.30;100.00
14594;BME280;7383;52.354;9.756;2023-04-30T14:21:43;65156.72;;;-143.30;100.00
14594;BME280;7383;52.354;9.756;2023-04-30T14:24:09;65156.72;;;-143.30;100.00
14594;BME280;7383;52.354;9.756;2023-04-30T14:26:36;65156.72;;;-143.30;100.00
14594;BME280;7383;52.354;9.756;2023-04-30T14:29:03;65156.72;;;-143.30;100.00
14594;BME280;7383;52.354;9.756;2023-04-30T14:31:30;65156.72;;;-143.30;100.00
14594;BME280;7383;52.354;9.756;2023-04-30T14:33:56;65156.72;;;-143.30;100.00
14594;BME280;7383;52.354;9.756;2023-04-30T14:36:23;65156.72;;;-143.30;100.00